Time;durP1;ratioP1;P1;durP2;ratioP2;P2;SDS_P1;SDS_P2;PMS_P1;PMS_P2;Temp;Humidity;BMP_temperature;BMP_pressure;BME280_temperature;BME280_humidity;BME280_pressure;Samples;Min_cycle;Max_cycle;Signal;HPM_P1;HPM_P2
2021/09/06 06:45:20;;;;;;;4.28;1.62;;;;;;;12.92;62.73;101284.09;1753590;78;21056;-37
2021/09/06 07:03:07;;;;;;;2.17;1.20;;;;;;;13.50;59.38;101283.98;1588797;86;21216;31
2021/09/06 07:09:08;;;;;;;2.08;1.17;;;;;;;13.71;58.71;101287.56;1532473;90;21329;-36
2021/09/06 07:11:50;;;;;;;2.55;1.30;;;;;;;13.79;57.10;101283.19;1537328;90;21151;-35
2021/09/06 07:14:47;;;;;;;2.90;1.50;;;;;;;13.84;56.00;101280.14;1545203;90;21160;-36
2021/09/06 07:21:32;;;;;;;1.37;1.00;;;;;;;13.91;53.86;101279.70;1629497;85;21148;-37
2021/09/06 07:28:07;;;;;;;1.07;0.98;;;;;;;14.08;50.91;101281.48;1598404;85;21150;31
2021/09/06 07:30:35;;;;;;;1.72;1.15;;;;;;;14.18;50.05;101281.52;1567169;89;21604;-35
2021/09/06 07:44:09;;;;;;;1.22;0.80;;;;;;;14.41;48.65;101290.30;1573132;86;21294;-37
2021/09/06 07:49:39;;;;;;;1.32;0.80;;;;;;;14.67;49.70;101279.80;1599805;85;21133;-35
2021/09/06 08:00:26;;;;;;;0.90;0.68;;;;;;;15.20;47.10;101269.56;1608462;86;21650;-34
2021/09/06 08:03:19;;;;;;;1.65;0.75;;;;;;;15.26;46.85;101277.45;1605984;87;21194;-35
2021/09/06 08:06:37;;;;;;;1.40;1.10;;;;;;;15.34;46.53;101279.59;1561635;89;21147;31
2021/09/06 08:09:40;;;;;;;2.37;1.05;;;;;;;15.53;45.40;101278.19;1543537;89;21195;-37
2021/09/06 08:31:39;;;;;;;1.32;0.93;;;;;;;14.84;43.38;101273.15;1656575;80;21187;-35
2021/09/06 08:34:49;;;;;;;0.95;0.70;;;;;;;14.90;40.33;101278.41;1634076;84;21403;-38
2021/09/06 08:41:47;;;;;;;7.33;1.20;;;;;;;15.14;40.95;101273.09;1639940;84;21107;-37
2021/09/06 09:03:26;;;;;;;1.52;0.88;;;;;;;16.01;37.27;101264.34;1680568;81;21261;-36
2021/09/06 09:44:09;;;;;;;3.72;1.20;;;;;;;16.11;37.33;101257.63;1543376;90;21654;-38
2021/09/06 09:49:37;;;;;;;1.12;0.90;;;;;;;16.08;36.99;101246.23;1550020;90;21894;-38
2021/09/06 10:23:34;;;;;;;3.27;0.95;;;;;;;16.04;34.56;101251.09;1619827;85;20226;-36
2021/09/06 10:26:29;;;;;;;1.22;1.00;;;;;;;15.87;34.67;101253.85;1586050;88;21227;-37
2021/09/06 10:29:16;;;;;;;1.07;0.90;;;;;;;15.74;35.10;101250.87;1547421;88;21524;-38
2021/09/06 10:32:15;;;;;;;1.15;0.78;;;;;;;15.76;35.33;101257.00;1586271;88;21187;-36
2021/09/06 10:38:19;;;;;;;2.08;1.02;;;;;;;16.40;34.75;101252.56;1572777;87;21137;-38
2021/09/06 10:40:47;;;;;;;3.80;1.00;;;;;;;17.00;35.18;101246.28;1542682;89;21097;-38
2021/09/06 10:43:26;;;;;;;1.90;0.95;;;;;;;17.49;34.08;101243.87;1567970;88;21771;-38
2021/09/06 10:49:31;;;;;;;1.62;0.90;;;;;;;18.73;31.63;101239.74;1591553;87;21094;-39
2021/09/06 10:52:30;;;;;;;1.25;1.00;;;;;;;18.37;31.16;101239.92;1592973;87;21152;-39
2021/09/06 11:00:24;;;;;;;2.60;1.15;;;;;;;16.69;33.81;101243.91;1628957;85;21007;-35
2021/09/06 11:03:03;;;;;;;1.85;0.90;;;;;;;16.46;34.09;101248.54;1622345;85;21069;-37
2021/09/06 11:09:10;;;;;;;3.20;2.17;;;;;;;16.12;35.44;101248.85;1610655;86;21068;-38
2021/09/06 11:14:26;;;;;;;3.85;0.80;;;;;;;16.08;34.93;101235.68;1707267;81;21034;-37
2021/09/06 11:17:03;;;;;;;0.95;0.70;;;;;;;16.19;34.30;101230.75;1654531;84;21505;-36
2021/09/06 11:23:40;;;;;;;1.87;1.00;;;;;;;16.71;33.85;101227.65;1681557;82;21576;-36
2021/09/06 11:26:25;;;;;;;3.33;1.02;;;;;;;17.00;31.72;101232.61;1687151;81;21007;-37
2021/09/06 11:29:03;;;;;;;1.35;0.90;;;;;;;16.98;32.47;101228.22;1637581;83;21528;-36
2021/09/06 11:31:48;;;;;;;2.30;1.00;;;;;;;16.92;32.93;101225.64;1694224;81;21550;-38
2021/09/06 11:34:20;;;;;;;2.58;1.00;;;;;;;16.96;33.30;101226.92;1679289;82;21040;-38
2021/09/06 11:37:06;;;;;;;1.35;1.12;;;;;;;17.07;32.77;101231.22;1662545;83;21051;-38
2021/09/06 11:39:38;;;;;;;3.00;1.05;;;;;;;17.16;33.08;101233.73;1686334;82;21615;-37
2021/09/06 11:42:38;;;;;;;1.35;1.25;;;;;;;17.22;32.36;101223.98;1678697;82;21045;-36
2021/09/06 11:45:25;;;;;;;3.80;1.32;;;;;;;17.26;31.66;101218.19;1687932;83;21186;-38
2021/09/06 11:48:05;;;;;;;1.47;1.20;;;;;;;17.33;32.82;101214.55;1709029;80;21021;-37
2021/09/06 11:50:37;;;;;;;2.22;1.10;;;;;;;17.50;32.68;101220.95;1682059;81;21565;-36
2021/09/06 11:53:14;;;;;;;1.98;1.50;;;;;;;17.54;33.37;101218.69;1711675;81;21049;-37
2021/09/06 11:55:56;;;;;;;3.08;1.22;;;;;;;17.42;33.23;101225.48;1728125;80;21179;-38
2021/09/06 11:58:29;;;;;;;2.10;1.25;;;;;;;17.17;33.08;101227.13;1697938;82;21757;-38
2021/09/06 12:03:29;;;;;;;8.20;1.37;;;;;;;16.64;34.75;101217.11;1704419;81;21066;-38
2021/09/06 12:06:15;;;;;;;4.65;1.60;;;;;;;16.64;34.75;101217.11;1695292;80;21083;-36
2021/09/06 12:08:59;;;;;;;1.95;1.37;;;;;;;16.61;33.56;101213.19;1703933;80;21087;-37
2021/09/06 12:11:40;;;;;;;3.08;1.50;;;;;;;16.69;34.79;101216.61;1690238;81;21060;-38
2021/09/06 12:14:46;;;;;;;3.42;1.70;;;;;;;16.82;33.44;101210.36;1729540;81;21653;-38
2021/09/06 12:17:58;;;;;;;3.87;1.95;;;;;;;17.00;33.26;101207.95;1671295;83;21453;-38
2021/09/06 12:23:13;;;;;;;3.42;1.87;;;;;;;17.26;32.62;101196.58;1742406;80;21384;-37
2021/09/06 12:25:42;;;;;;;3.00;1.37;;;;;;;17.33;33.04;101207.08;1724435;80;21071;-38
2021/09/06 12:28:16;;;;;;;2.05;1.30;;;;;;;17.25;32.82;101204.09;1684488;81;21119;-38
2021/09/06 12:33:40;;;;;;;1.92;1.52;;;;;;;17.05;35.51;101203.91;1707298;79;21145;-36
2021/09/06 12:36:26;;;;;;;1.45;1.27;;;;;;;16.95;35.54;101210.64;1657227;83;21132;-36
2021/09/06 12:38:56;;;;;;;3.77;1.60;;;;;;;16.79;36.51;101211.70;1689866;83;21044;-40
2021/09/06 12:41:24;;;;;;;3.83;1.37;;;;;;;16.66;36.64;101213.58;1704814;81;21603;-37
2021/09/06 12:46:54;;;;;;;2.25;1.60;;;;;;;16.22;37.12;101220.14;1720421;81;21646;-37
2021/09/06 12:49:27;;;;;;;5.53;2.10;;;;;;;16.03;37.55;101219.00;1720377;81;21116;-36
2021/09/06 12:52:03;;;;;;;2.58;1.80;;;;;;;15.89;38.57;101221.31;1646631;81;21129;-36
2021/09/06 12:54:29;;;;;;;2.75;1.87;;;;;;;15.84;38.57;101221.78;1721728;80;22002;-37
2021/09/06 12:57:01;;;;;;;2.00;1.40;;;;;;;15.83;38.85;101230.59;1677004;83;21075;-37
2021/09/06 12:59:29;;;;;;;6.20;1.62;;;;;;;15.82;38.89;101234.53;1679036;83;21212;-37
2021/09/06 13:01:57;;;;;;;5.15;1.60;;;;;;;15.81;38.98;101228.83;1635213;83;21120;-35
2021/09/06 13:04:25;;;;;;;4.72;1.98;;;;;;;15.82;39.40;101230.58;1696373;83;21036;-37
2021/09/06 13:13:09;;;;;;;2.75;1.72;;;;;;;15.70;38.81;101224.48;1677614;81;21666;-35
2021/09/06 13:15:40;;;;;;;3.55;1.62;;;;;;;15.75;39.30;101223.15;1633851;85;21111;-36
2021/09/06 13:18:09;;;;;;;3.40;2.00;;;;;;;15.87;38.41;101223.51;1669501;83;21102;-35
2021/09/06 13:20:46;;;;;;;8.65;2.98;;;;;;;16.05;38.93;101223.81;1701153;82;21050;-35
2021/09/06 13:23:17;;;;;;;5.67;1.65;;;;;;;16.25;37.63;101221.03;1723154;80;21072;-35
2021/09/06 13:25:54;;;;;;;3.08;1.90;;;;;;;16.46;37.46;101221.68;1726466;82;21496;-36
2021/09/06 13:30:53;;;;;;;2.30;1.47;;;;;;;16.94;36.61;101214.63;1735470;80;21619;-36
2021/09/06 13:33:23;;;;;;;3.17;2.20;;;;;;;17.25;35.84;101215.99;1700905;81;21526;-36
2021/09/06 13:35:53;;;;;;;2.87;1.77;;;;;;;17.45;35.30;101212.19;1646987;83;21516;-37
2021/09/06 13:38:34;;;;;;;2.62;1.47;;;;;;;17.49;35.31;101213.45;1698745;81;21968;-36
2021/09/06 13:41:32;;;;;;;2.95;1.40;;;;;;;17.41;34.42;101220.64;1711532;82;21068;-37
2021/09/06 13:44:00;;;;;;;3.12;1.47;;;;;;;17.24;34.01;101216.02;1729300;81;21036;-36
2021/09/06 13:54:46;;;;;;;5.35;1.67;;;;;;;16.77;33.79;101221.88;1642511;85;21665;-37
2021/09/06 13:57:14;;;;;;;2.33;1.35;;;;;;;16.42;34.88;101221.30;1674635;83;21134;-36
2021/09/06 13:59:44;;;;;;;2.50;1.77;;;;;;;16.32;35.97;101216.98;1631206;85;21549;-37
2021/09/06 14:02:15;;;;;;;5.20;1.50;;;;;;;16.25;36.17;101223.67;1626378;86;21176;-35
2021/09/06 14:04:51;;;;;;;;;;;;;;;16.26;36.47;101224.09;1620813;86;21128;-37
2021/09/06 14:07:32;;;;;;;2.10;1.27;;;;;;;16.38;35.47;101218.25;1636952;85;20169;-36
2021/09/06 14:10:07;;;;;;;6.65;1.90;;;;;;;16.60;35.82;101219.38;1602755;87;21026;-37
2021/09/06 14:12:36;;;;;;;6.42;1.70;;;;;;;16.83;35.61;101222.68;1562360;89;21164;-36
2021/09/06 14:15:08;;;;;;;6.83;2.00;;;;;;;16.99;35.28;101216.78;1589249;86;21063;-35
2021/09/06 14:17:38;;;;;;;4.75;1.80;;;;;;;17.16;35.49;101220.09;1654687;84;21528;-36
2021/09/06 14:20:09;;;;;;;2.47;1.62;;;;;;;17.41;34.94;101221.09;1596608;87;21225;-37
2021/09/06 14:22:42;;;;;;;3.00;1.17;;;;;;;17.44;34.51;101223.22;1623396;87;21085;-35
2021/09/06 14:25:13;;;;;;;9.90;2.15;;;;;;;17.29;34.58;101232.70;1626649;85;21074;-36
2021/09/06 14:40:19;;;;;;;3.33;1.50;;;;;;;16.20;36.72;101239.09;1544632;91;21747;-36
2021/09/06 14:47:32;;;;;;;5.22;2.08;;;;;;;15.89;37.82;101237.14;1603314;83;21127;-36
2021/09/06 15:03:11;;;;;;;3.58;1.62;;;;;;;15.62;38.63;101236.86;1636248;85;21203;-38
2021/09/06 15:13:55;;;;;;;2.80;1.67;;;;;;;15.64;37.30;101227.17;1572468;88;21636;-36
2021/09/06 15:16:28;;;;;;;4.17;1.60;;;;;;;15.56;37.60;101232.91;1589386;89;22365;-38
2021/09/06 15:19:14;;;;;;;3.37;1.57;;;;;;;15.50;36.98;101239.98;1559699;90;21598;-36
2021/09/06 15:40:01;;;;;;;5.85;1.67;;;;;;;15.65;37.41;101245.19;1574449;89;21206;-36
2021/09/06 15:42:54;;;;;;;4.42;1.60;;;;;;;15.69;36.61;101244.30;1547966;90;21920;-38
2021/09/06 15:45:22;;;;;;;4.40;1.75;;;;;;;16.07;35.31;101243.17;1487068;92;21123;-36
2021/09/06 15:48:03;;;;;;;3.80;2.10;;;;;;;16.50;34.52;101244.98;1506871;89;21646;-37
2021/09/06 15:50:40;;;;;;;2.77;1.77;;;;;;;16.69;34.50;101245.23;1561263;90;21061;-37
2021/09/06 15:53:12;;;;;;;2.83;1.65;;;;;;;16.67;34.60;101249.66;1586534;87;21180;-37
2021/09/06 15:55:41;;;;;;;2.70;1.62;;;;;;;16.56;34.66;101249.34;1591356;88;21064;-38
2021/09/06 15:58:14;;;;;;;6.28;1.85;;;;;;;16.45;34.71;101252.95;1595196;87;21111;-37
